Launchpad.net

freedesktop.org Bugzilla

Summary

freedesktop.org hosts numerous open projects, including X.Org, Mesa, D-Bus, LibreOffice, and many cross-desktop projects and specifications.

Bug watches

175 of 6145 results
Launchpad bug Remote bug Status Last check Next check
#1661371: [zesty] doesn't offer a window to install missing gstreamer codecs 99879 RESOLVED NOTOURBUG 2017-02-20 2017-02-23 02:34:32 UTC
#1665298: (Private) -
#1661934: Numerous deleted DRM mmaped objects in Xorg server memory mappings 99807 NEW 2017-02-21 2017-02-24 12:35:20 UTC
#1553441: [Asus K55DR] When VGA plugged into laptop, only one monitor working at a time 99784 NEW 1 hour ago 2017-02-23 05:07:43 UTC
#1659231: drm/i915: Unity-control-center (or any other settings module) makes the system unresponsive (Unity7, Zesty) for Kernel > 4.6 96781 ASSIGNED 16 hours ago 2017-02-22 14:23:51 UTC
#1659231: drm/i915: Unity-control-center (or any other settings module) makes the system unresponsive (Unity7, Zesty) for Kernel > 4.6 93782 REOPENED 16 hours ago 2017-02-22 14:23:49 UTC
#1663379: Problems in 17.04 alfa 2 99747 NEW 21 hours ago 2017-02-22 08:59:03 UTC
#1663391: Mesa+AMD Video artefacts 99747 NEW 21 hours ago 2017-02-22 08:59:03 UTC
#1661227: Failed openstack-zaqar service after undercloud upgrade 84923 RESOLVED FIXED 47 minutes ago 2017-02-23 06:10:23 UTC
#1661695: screen flickering raedon 73116 NEW 48 minutes ago 2017-02-23 06:09:53 UTC
#1257153: Option "AreaBottomEdge" ignores other areas when active 66532 NEW 4 hours ago 2017-02-23 02:04:22 UTC
#1659183: English (Canada) input source is missing the left backslash key 99596 NEW 6 hours ago 2017-02-25 09:52:26 UTC
#1584314: Togo keyboard layout / compose keys 92344 RESOLVED FIXED 20 hours ago 2017-02-23 15:43:28 UTC
#1656620: Discoloration in some XFCE icons and window borders 99078 NEW 2017-02-19 2017-02-23 22:30:43 UTC
#1651981: shaking screen 98897 NEW 11 hours ago 2017-02-22 19:30:45 UTC
#1655752: Xorg crashed with SIGABRT in libinput_device_config_tap_get_finger_count() 97117 11 hours ago 2017-02-22 19:30:44 UTC
#1635996: Libreoffice temporarily hangs / freezes Ubuntu 16.10 99423 NEW 16 hours ago 2017-02-22 14:23:52 UTC
#1655752: Xorg crashed with SIGABRT in libinput_device_config_tap_get_finger_count() 99390 13 hours ago 2017-02-22 17:29:37 UTC
#1655782: Elfdalian layout + merge with Debian 2.19-1 98177 16 hours ago 2017-02-22 14:23:52 UTC
#1655189: Cannot record videos into Theora 99342 12 hours ago 2017-02-22 18:31:46 UTC
#1651342: Red channel missing when displaying a jpeg image 99310 VERIFIED DUPLICATE 10 hours ago 2017-02-22 20:27:55 UTC
#1651342: Red channel missing when displaying a jpeg image 99078 NEW 11 hours ago 2017-02-22 19:30:46 UTC
#1652486: mesa gpu lockup 93649 16 hours ago 2017-02-22 14:23:49 UTC
#1653560: smartctl should output RAW_VALUE as Temperature_Celcius 99269 17 hours ago 2017-02-22 13:10:42 UTC
#319376: No Dvorak layout for multilingual keyboards 96537 16 hours ago 2017-02-22 14:23:51 UTC
#1651910: radeon: black screen after upgrade from 14.04 to 16.04 on RS780 99181 11 hours ago 2017-02-22 19:30:46 UTC
#1651924: [HP Pavilion Notebook - 15-ab114no] Intermittent black screen 95306 NEW 16 hours ago 2017-02-22 14:23:50 UTC
#1611124: W: Possible missing firmware /lib/firmware/i915/kbl_guc_ver9_14.bin for module i915 97825 REOPENED 17 hours ago 2017-02-22 13:10:41 UTC
#1647917: Invalid access when opening eps with ghostscript 9.19~dfsg+1-0ubuntu6.2 and libspectre 0.2.8 99012 11 hours ago 2017-02-22 19:30:45 UTC
#1618678: Disk Device Driver Reported Error: DID_ERROR ... DRIVER SENSE 98991 NEW 12 hours ago 2017-02-22 18:31:46 UTC
#311816: Georgian letters U+10FA & U+10FC swapped 18357 17 hours ago 2017-02-22 13:02:37 UTC
#1606483: (Private) -
#1644323: Installing unity8-session-snap adversely effects unity7 96977 12 hours ago 2017-02-22 18:31:45 UTC
#1528775: unnecessary logging of needBandwidth, totalBandwidth 80021 15 hours ago 2017-02-22 15:29:03 UTC
#1509139: Shows "Chromium isn't your default browser" since 15.10. 98562 13 hours ago 2017-02-22 17:29:37 UTC
#1643843: Distorted colours after suspend / resume cycle 98832 11 hours ago 2017-02-22 19:30:45 UTC
#1642718: At least 3-5 minute gap between removing power cable and system notifying of event 98796 17 hours ago 2017-02-22 13:10:42 UTC
#1480673: [ELAN 3320KD-3100] Asus T300 CHI bluetooth Touchpad is recognized incorrectly 98770 NEW 2017-02-20 2017-02-23 09:40:48 UTC
#1639337: Ubuntu 16.10 Abs_pressure not reported from kernel evdev to xserver-xorg-evdev 98575 16 hours ago 2017-02-22 14:23:52 UTC
#1639372: CVE-2016-9082: DOS attack in converting SVG to PNG 98165 11 hours ago 2017-02-22 19:30:44 UTC
#1635361: Touchpad Sensitivity is too High 97819 16 hours ago 2017-02-22 14:23:51 UTC
#1579182: [drm:intel_pipe_update_end [i915]] *ERROR* Atomic update failure on pipe A 94337 16 hours ago 2017-02-22 14:23:50 UTC
#1579182: [drm:intel_pipe_update_end [i915]] *ERROR* Atomic update failure on pipe A 91883 REOPENED 11 hours ago 2017-02-22 19:30:33 UTC
#1614806: This package breaks "ark" rar support 93549 13 hours ago 2017-02-22 17:29:32 UTC
#1619677: Intel Skylake video: no output on VGA port 97558 17 hours ago 2017-02-22 13:10:41 UTC
#1597079: [HP Pavilion Notebook - 15-ab141na] Black Screen when Booting 97605 16 hours ago 2017-02-22 14:23:51 UTC
#1635812: atril-thumbnailer crashed with SIGSEGV in cmsGetColorSpace() 97870 16 hours ago 2017-02-22 14:23:52 UTC
#1634451: Screen flickers when booting ubuntu 16.10 on USB stick 97875 13 hours ago 2017-02-22 17:29:36 UTC
#1621434: (Private) -
#1633520: Support dbus runtime relocation 98260 15 hours ago 2017-02-22 15:29:34 UTC
#1629797: resolve service in nsswitch.conf adds 25 seconds to failed lookups before systemd-resolved is up 98254 17 hours ago 2017-02-22 13:10:41 UTC
#1539046: libGL error: failed to open drm device: Permission denied 98163 13 hours ago 2017-02-22 17:29:36 UTC
#1619175: (Private) -
#1406810: [iMac11,1] Unable to boot 98046 11 hours ago 2017-02-22 19:30:44 UTC
#1627214: Random display flickering on Kernel 4.8 with dual-screen 97596 13 hours ago 2017-02-22 17:29:36 UTC
#1619204: (Private) -
#1620461: (Private) -
#1628866: After upgrading to 16.10, Chrome has become unusable because of extremely slow update 85064 17 hours ago 2017-02-22 13:10:05 UTC
#1615204: select-by-word/triple-tap drag-select only works if tap very fast 95171 17 hours ago 2017-02-22 13:10:38 UTC
#1621719: Black screen when resuming laptop from sleep 93509 16 hours ago 2017-02-22 14:23:49 UTC
#1621719: Black screen when resuming laptop from sleep 93782 REOPENED 17 hours ago 2017-02-22 13:10:36 UTC
#1621719: Black screen when resuming laptop from sleep 96441 NEW 13 hours ago 2017-02-22 17:29:35 UTC
#1626255: WARNING: CPU: 1 PID: 64 at /build/linux-o309rM/linux-4.8.0/drivers/gpu/drm/i915/intel_pm.c:7866 sandybridge_pcode_write+0x109/0x1f0 [i915] 97826 17 hours ago 2017-02-22 13:10:41 UTC
#1619204: (Private) -
#1625932: Backlight does not change when adjust it higher than 50% after S3 97486 16 hours ago 2017-02-22 14:23:51 UTC
#1619589: [138a:0090] Validity Sensors fingerprint reader not recognized 94536 NEW 13 hours ago 2017-02-22 17:29:33 UTC
#1623160: touchpad too sensitive on slow movements 97819 16 hours ago 2017-02-22 14:23:51 UTC
#1553328: Mir/Unity8 crashes/freezes on nouveau (nv50) in pushbuf_kref() especially with multiple monitors, webbrowser-app or system settings 92438 11 hours ago 2017-02-22 19:30:34 UTC
#1621331: (Private) -
#1609074: Screen flicker on 16.04 97208 16 hours ago 2017-02-22 14:23:51 UTC
#1610591: Video acceleration regression for Radeon Xpress 200M (r300) in xorg-lts-xenial & xorg-lts-wily 97228 11 hours ago 2017-02-22 19:30:44 UTC
#1618635: Make snapd-login-service quit when not required 11454 15 hours ago 2017-02-22 15:20:22 UTC
#1610046: (Private) -
#1597612: (Private) -
#1577049: Switch user feature has disappeared from GNOME Shell since upgrade from 15.10 to 16.04 91678 16 hours ago 2017-02-22 14:23:48 UTC
175 of 6145 results